sensor_id;sensor_type;location;lat;lon;timestamp;pressure;altitude;pressure_sealevel;temperature;humidity
11011;BME280;5558;42.702;23.178;2023-08-01T00:01:29;93393.69;;;17.96;100.00
11011;BME280;5558;42.702;23.178;2023-08-01T00:03:56;93400.94;;;17.78;100.00
11011;BME280;5558;42.702;23.178;2023-08-01T00:06:22;93400.78;;;17.75;100.00
11011;BME280;5558;42.702;23.178;2023-08-01T00:08:50;93403.44;;;17.75;100.00
11011;BME280;5558;42.702;23.178;2023-08-01T00:11:17;93392.84;;;17.44;100.00
11011;BME280;5558;42.702;23.178;2023-08-01T00:13:43;93403.25;;;17.54;100.00
11011;BME280;5558;42.702;23.178;2023-08-01T00:16:11;93402.41;;;17.28;100.00
11011;BME280;5558;42.702;23.178;2023-08-01T00:18:38;93394.91;;;17.47;100.00
11011;BME280;5558;42.702;23.178;2023-08-01T00:21:05;93397.44;;;17.52;100.00
11011;BME280;5558;42.702;23.178;2023-08-01T00:23:35;93397.91;;;17.63;100.00
11011;BME280;5558;42.702;23.178;2023-08-01T00:26:02;93398.38;;;17.48;100.00
11011;BME280;5558;42.702;23.178;2023-08-01T00:28:29;93394.88;;;17.39;100.00
11011;BME280;5558;42.702;23.178;2023-08-01T00:31:02;93401.81;;;17.40;100.00
11011;BME280;5558;42.702;23.178;2023-08-01T00:33:30;93402.41;;;17.28;100.00
11011;BME280;5558;42.702;23.178;2023-08-01T00:35:57;93399.91;;;17.32;100.00
11011;BME280;5558;42.702;23.178;2023-08-01T00:38:23;93402.59;;;17.40;100.00
11011;BME280;5558;42.702;23.178;2023-08-01T00:40:50;93398.19;;;17.44;100.00
11011;BME280;5558;42.702;23.178;2023-08-01T00:43:17;93400.88;;;17.44;100.00
11011;BME280;5558;42.702;23.178;2023-08-01T00:45:45;93408.53;;;17.29;100.00
11011;BME280;5558;42.702;23.178;2023-08-01T00:48:12;93390.41;;;17.17;100.00
11011;BME280;5558;42.702;23.178;2023-08-01T00:50:40;93395.31;;;17.24;100.00
11011;BME280;5558;42.702;23.178;2023-08-01T00:53:07;93398.44;;;17.17;100.00
11011;BME280;5558;42.702;23.178;2023-08-01T00:55:34;93394.84;;;17.13;100.00
11011;BME280;5558;42.702;23.178;2023-08-01T00:58:01;93391.50;;;17.08;100.00
11011;BME280;5558;42.702;23.178;2023-08-01T01:00:28;93387.09;;;17.12;100.00
11011;BME280;5558;42.702;23.178;2023-08-01T01:02:55;93382.69;;;17.07;100.00
11011;BME280;5558;42.702;23.178;2023-08-01T01:05:24;93386.81;;;17.13;100.00
11011;BME280;5558;42.702;23.178;2023-08-01T01:07:53;93385.03;;;17.08;100.00
11011;BME280;5558;42.702;23.178;2023-08-01T01:10:20;93376.97;;;16.91;100.00
11011;BME280;5558;42.702;23.178;2023-08-01T01:12:47;93377.97;;;17.04;100.00
11011;BME280;5558;42.702;23.178;2023-08-01T01:15:15;93378.63;;;17.10;100.00
11011;BME280;5558;42.702;23.178;2023-08-01T01:17:42;93371.53;;;17.14;100.00
11011;BME280;5558;42.702;23.178;2023-08-01T01:20:09;93368.22;;;17.17;100.00
11011;BME280;5558;42.702;23.178;2023-08-01T01:22:38;93369.78;;;17.09;100.00
11011;BME280;5558;42.702;23.178;2023-08-01T01:25:09;93372.44;;;17.00;100.00
11011;BME280;5558;42.702;23.178;2023-08-01T01:27:37;93366.09;;;16.88;100.00
11011;BME280;5558;42.702;23.178;2023-08-01T01:30:06;93352.53;;;16.67;100.00
11011;BME280;5558;42.702;23.178;2023-08-01T01:32:33;93357.13;;;16.75;100.00
11011;BME280;5558;42.702;23.178;2023-08-01T01:35:01;93352.56;;;16.84;100.00
11011;BME280;5558;42.702;23.178;2023-08-01T01:37:28;93361.66;;;16.75;100.00
11011;BME280;5558;42.702;23.178;2023-08-01T01:39:56;93355.94;;;16.59;100.00
11011;BME280;5558;42.702;23.178;2023-08-01T01:42:23;93366.78;;;16.63;100.00
11011;BME280;5558;42.702;23.178;2023-08-01T01:44:50;93366.66;;;16.68;100.00
11011;BME280;5558;42.702;23.178;2023-08-01T01:47:16;93367.59;;;16.63;100.00
11011;BME280;5558;42.702;23.178;2023-08-01T01:49:43;93365.84;;;16.59;100.00
11011;BME280;5558;42.702;23.178;2023-08-01T01:52:10;93367.31;;;16.43;100.00
11011;BME280;5558;42.702;23.178;2023-08-01T01:54:36;93365.44;;;16.43;100.00
11011;BME280;5558;42.702;23.178;2023-08-01T01:57:05;93341.78;;;16.28;100.00
11011;BME280;5558;42.702;23.178;2023-08-01T01:59:31;93361.78;;;16.39;100.00
11011;BME280;5558;42.702;23.178;2023-08-01T02:01:58;93367.50;;;16.46;100.00
11011;BME280;5558;42.702;23.178;2023-08-01T02:04:25;93366.28;;;16.22;100.00
11011;BME280;5558;42.702;23.178;2023-08-01T02:06:52;93361.56;;;16.27;100.00
11011;BME280;5558;42.702;23.178;2023-08-01T02:09:20;93369.25;;;16.29;100.00
11011;BME280;5558;42.702;23.178;2023-08-01T02:11:46;93363.00;;;16.03;100.00
11011;BME280;5558;42.702;23.178;2023-08-01T02:14:15;93366.88;;;15.97;100.00
11011;BME280;5558;42.702;23.178;2023-08-01T02:16:42;93358.16;;;16.05;100.00
11011;BME280;5558;42.702;23.178;2023-08-01T02:19:09;93364.13;;;16.10;100.00
11011;BME280;5558;42.702;23.178;2023-08-01T02:21:35;93372.09;;;16.02;100.00
11011;BME280;5558;42.702;23.178;2023-08-01T02:24:02;93364.56;;;15.81;100.00
11011;BME280;5558;42.702;23.178;2023-08-01T02:26:29;93361.66;;;15.92;100.00
11011;BME280;5558;42.702;23.178;2023-08-01T02:28:56;93358.34;;;15.86;100.00
11011;BME280;5558;42.702;23.178;2023-08-01T02:31:24;93364.94;;;15.66;100.00
11011;BME280;5558;42.702;23.178;2023-08-01T02:33:50;93369.72;;;15.78;100.00
11011;BME280;5558;42.702;23.178;2023-08-01T02:36:17;93363.81;;;15.81;100.00
11011;BME280;5558;42.702;23.178;2023-08-01T02:38:44;93358.88;;;15.74;100.00
11011;BME280;5558;42.702;23.178;2023-08-01T02:41:11;93359.34;;;15.76;100.00
11011;BME280;5558;42.702;23.178;2023-08-01T02:43:37;93353.66;;;15.69;100.00
11011;BME280;5558;42.702;23.178;2023-08-01T02:46:04;93358.63;;;15.62;100.00
11011;BME280;5558;42.702;23.178;2023-08-01T02:48:32;93359.63;;;15.53;100.00
11011;BME280;5558;42.702;23.178;2023-08-01T02:51:00;93358.44;;;15.59;100.00
11011;BME280;5558;42.702;23.178;2023-08-01T02:53:27;93369.06;;;15.50;100.00
11011;BME280;5558;42.702;23.178;2023-08-01T02:55:54;93369.44;;;15.57;100.00
11011;BME280;5558;42.702;23.178;2023-08-01T02:58:20;93369.88;;;15.59;100.00
11011;BME280;5558;42.702;23.178;2023-08-01T03:00:47;93372.22;;;15.52;100.00
11011;BME280;5558;42.702;23.178;2023-08-01T03:03:14;93368.31;;;15.58;100.00
11011;BME280;5558;42.702;23.178;2023-08-01T03:05:42;93372.91;;;15.31;100.00
11011;BME280;5558;42.702;23.178;2023-08-01T03:08:08;93378.06;;;15.27;100.00
11011;BME280;5558;42.702;23.178;2023-08-01T03:10:35;93375.91;;;15.16;100.00
11011;BME280;5558;42.702;23.178;2023-08-01T03:13:02;93370.56;;;15.16;100.00
11011;BME280;5558;42.702;23.178;2023-08-01T03:15:28;93374.16;;;15.11;100.00
11011;BME280;5558;42.702;23.178;2023-08-01T03:17:55;93366.34;;;15.01;100.00
11011;BME280;5558;42.702;23.178;2023-08-01T03:20:22;93377.19;;;15.18;100.00
11011;BME280;5558;42.702;23.178;2023-08-01T03:22:50;93379.44;;;15.25;100.00
11011;BME280;5558;42.702;23.178;2023-08-01T03:25:17;93378.97;;;15.23;100.00
11011;BME280;5558;42.702;23.178;2023-08-01T03:27:43;93372.03;;;15.35;100.00
11011;BME280;5558;42.702;23.178;2023-08-01T03:30:10;93368.88;;;15.47;100.00
11011;BME280;5558;42.702;23.178;2023-08-01T03:32:37;93383.31;;;15.68;100.00
11011;BME280;5558;42.702;23.178;2023-08-01T03:35:04;93378.50;;;16.23;100.00
11011;BME280;5558;42.702;23.178;2023-08-01T03:37:31;93378.88;;;16.91;100.00
11011;BME280;5558;42.702;23.178;2023-08-01T03:39:59;93384.53;;;17.46;100.00
11011;BME280;5558;42.702;23.178;2023-08-01T03:42:25;93373.34;;;18.12;100.00
11011;BME280;5558;42.702;23.178;2023-08-01T03:44:52;93379.28;;;18.98;100.00
11011;BME280;5558;42.702;23.178;2023-08-01T03:47:19;93386.25;;;18.90;100.00
11011;BME280;5558;42.702;23.178;2023-08-01T03:49:45;93386.28;;;19.49;100.00
11011;BME280;5558;42.702;23.178;2023-08-01T03:52:12;93370.41;;;20.38;92.13
11011;BME280;5558;42.702;23.178;2023-08-01T03:54:39;93383.59;;;21.44;80.18
11011;BME280;5558;42.702;23.178;2023-08-01T03:57:07;93389.03;;;22.51;70.81
11011;BME280;5558;42.702;23.178;2023-08-01T03:59:33;93393.88;;;23.17;65.26
11011;BME280;5558;42.702;23.178;2023-08-01T04:02:00;93392.56;;;24.07;60.54
11011;BME280;5558;42.702;23.178;2023-08-01T04:04:27;93395.34;;;25.10;55.87
11011;BME280;5558;42.702;23.178;2023-08-01T04:06:53;93401.63;;;26.08;50.86
11011;BME280;5558;42.702;23.178;2023-08-01T04:09:20;93398.03;;;27.29;47.10
11011;BME280;5558;42.702;23.178;2023-08-01T04:11:47;93402.66;;;28.30;44.37
11011;BME280;5558;42.702;23.178;2023-08-01T04:14:15;93398.00;;;29.24;41.28
11011;BME280;5558;42.702;23.178;2023-08-01T04:16:41;93395.69;;;30.14;39.35
11011;BME280;5558;42.702;23.178;2023-08-01T04:19:08;93405.69;;;30.76;37.64
11011;BME280;5558;42.702;23.178;2023-08-01T04:21:35;93395.22;;;31.44;36.19
11011;BME280;5558;42.702;23.178;2023-08-01T04:24:01;93387.31;;;32.04;35.16
11011;BME280;5558;42.702;23.178;2023-08-01T04:26:28;93411.06;;;32.58;34.21
11011;BME280;5558;42.702;23.178;2023-08-01T04:28:55;93406.81;;;30.89;35.33
11011;BME280;5558;42.702;23.178;2023-08-01T04:31:23;93406.69;;;31.14;34.95
11011;BME280;5558;42.702;23.178;2023-08-01T04:33:50;93405.69;;;31.56;34.16
11011;BME280;5558;42.702;23.178;2023-08-01T04:36:16;93401.75;;;32.52;33.19
11011;BME280;5558;42.702;23.178;2023-08-01T04:38:43;93409.13;;;33.22;32.05
11011;BME280;5558;42.702;23.178;2023-08-01T04:41:10;93408.63;;;33.58;30.98
11011;BME280;5558;42.702;23.178;2023-08-01T04:43:36;93395.41;;;34.02;29.78
11011;BME280;5558;42.702;23.178;2023-08-01T04:46:03;93403.09;;;34.77;28.81
11011;BME280;5558;42.702;23.178;2023-08-01T04:48:31;93397.75;;;35.09;28.52
11011;BME280;5558;42.702;23.178;2023-08-01T04:50:58;93392.50;;;35.53;28.04
11011;BME280;5558;42.702;23.178;2023-08-01T04:53:24;93366.81;;;35.40;27.86
11011;BME280;5558;42.702;23.178;2023-08-01T04:55:51;93405.56;;;35.66;28.11
11011;BME280;5558;42.702;23.178;2023-08-01T04:58:18;93399.25;;;36.17;27.46
11011;BME280;5558;42.702;23.178;2023-08-01T05:00:45;93410.53;;;36.83;26.31
11011;BME280;5558;42.702;23.178;2023-08-01T05:03:11;93409.41;;;37.09;25.94
11011;BME280;5558;42.702;23.178;2023-08-01T05:05:39;93410.97;;;37.89;26.00
11011;BME280;5558;42.702;23.178;2023-08-01T05:08:06;93405.66;;;38.20;25.54
11011;BME280;5558;42.702;23.178;2023-08-01T05:10:33;93408.75;;;38.22;25.15
11011;BME280;5558;42.702;23.178;2023-08-01T05:12:59;93410.75;;;38.21;24.66
11011;BME280;5558;42.702;23.178;2023-08-01T05:15:26;93404.59;;;38.85;24.02
11011;BME280;5558;42.702;23.178;2023-08-01T05:17:53;93410.22;;;39.38;23.94
11011;BME280;5558;42.702;23.178;2023-08-01T05:20:21;93412.16;;;39.28;23.81
11011;BME280;5558;42.702;23.178;2023-08-01T05:22:49;93418.50;;;38.01;25.24
11011;BME280;5558;42.702;23.178;2023-08-01T05:25:16;93404.19;;;38.40;24.34
11011;BME280;5558;42.702;23.178;2023-08-01T05:27:42;93416.03;;;39.52;23.58
11011;BME280;5558;42.702;23.178;2023-08-01T05:30:10;93413.88;;;39.87;22.86
11011;BME280;5558;42.702;23.178;2023-08-01T05:32:37;93419.69;;;40.01;22.82
11011;BME280;5558;42.702;23.178;2023-08-01T05:35:06;93419.34;;;40.48;22.59
11011;BME280;5558;42.702;23.178;2023-08-01T05:37:33;93413.31;;;40.32;22.53
11011;BME280;5558;42.702;23.178;2023-08-01T05:40:01;93419.69;;;40.68;22.42
11011;BME280;5558;42.702;23.178;2023-08-01T05:42:28;93414.22;;;41.13;22.17
11011;BME280;5558;42.702;23.178;2023-08-01T05:44:55;93380.53;;;41.11;21.60
11011;BME280;5558;42.702;23.178;2023-08-01T05:47:22;93415.09;;;41.56;21.41
11011;BME280;5558;42.702;23.178;2023-08-01T05:49:49;93414.53;;;41.84;20.93
11011;BME280;5558;42.702;23.178;2023-08-01T05:52:15;93417.66;;;41.68;21.30
11011;BME280;5558;42.702;23.178;2023-08-01T05:54:42;93407.38;;;40.12;22.66
11011;BME280;5558;42.702;23.178;2023-08-01T05:57:10;93402.41;;;39.97;23.19
11011;BME280;5558;42.702;23.178;2023-08-01T05:59:37;93411.56;;;40.83;22.04
11011;BME280;5558;42.702;23.178;2023-08-01T06:02:04;93396.69;;;40.41;22.58
11011;BME280;5558;42.702;23.178;2023-08-01T06:04:31;93400.84;;;39.14;23.46
11011;BME280;5558;42.702;23.178;2023-08-01T06:06:57;93404.03;;;39.55;23.32
11011;BME280;5558;42.702;23.178;2023-08-01T06:09:24;93398.41;;;40.07;22.48
11011;BME280;5558;42.702;23.178;2023-08-01T06:11:51;93398.97;;;39.32;21.97
11011;BME280;5558;42.702;23.178;2023-08-01T06:14:19;93401.75;;;38.42;23.60
11011;BME280;5558;42.702;23.178;2023-08-01T06:16:46;93396.97;;;39.11;23.61
11011;BME280;5558;42.702;23.178;2023-08-01T06:19:12;93400.03;;;38.91;23.77
11011;BME280;5558;42.702;23.178;2023-08-01T06:21:39;93393.59;;;39.07;22.63
11011;BME280;5558;42.702;23.178;2023-08-01T06:24:06;93395.75;;;38.44;23.04
11011;BME280;5558;42.702;23.178;2023-08-01T06:26:33;93390.44;;;37.90;24.16
11011;BME280;5558;42.702;23.178;2023-08-01T06:29:00;93386.25;;;36.91;24.87
11011;BME280;5558;42.702;23.178;2023-08-01T06:31:28;93381.78;;;37.09;25.35
11011;BME280;5558;42.702;23.178;2023-08-01T06:33:55;93385.44;;;37.06;25.18
11011;BME280;5558;42.702;23.178;2023-08-01T06:36:21;93391.63;;;37.10;25.00
11011;BME280;5558;42.702;23.178;2023-08-01T06:38:48;93385.88;;;36.47;25.84
11011;BME280;5558;42.702;23.178;2023-08-01T06:41:15;93377.34;;;36.10;25.91
11011;BME280;5558;42.702;23.178;2023-08-01T06:43:42;93380.53;;;35.76;26.10
11011;BME280;5558;42.702;23.178;2023-08-01T06:46:10;93376.53;;;34.70;27.65
11011;BME280;5558;42.702;23.178;2023-08-01T06:48:38;93371.84;;;35.06;27.36
11011;BME280;5558;42.702;23.178;2023-08-01T06:51:04;93373.81;;;35.77;26.67
11011;BME280;5558;42.702;23.178;2023-08-01T06:53:31;93372.97;;;36.12;25.87
11011;BME280;5558;42.702;23.178;2023-08-01T06:55:58;93364.34;;;35.94;27.07
11011;BME280;5558;42.702;23.178;2023-08-01T06:58:24;93365.22;;;34.84;27.83
11011;BME280;5558;42.702;23.178;2023-08-01T07:00:51;93361.97;;;33.58;29.01
11011;BME280;5558;42.702;23.178;2023-08-01T07:03:18;93368.41;;;33.48;29.86
11011;BME280;5558;42.702;23.178;2023-08-01T07:05:46;93367.56;;;33.51;29.77
11011;BME280;5558;42.702;23.178;2023-08-01T07:08:12;93361.00;;;34.17;28.88
11011;BME280;5558;42.702;23.178;2023-08-01T07:10:39;93360.91;;;34.44;28.10
11011;BME280;5558;42.702;23.178;2023-08-01T07:13:06;93358.59;;;33.96;29.19
11011;BME280;5558;42.702;23.178;2023-08-01T07:15:33;93355.69;;;33.30;30.10
11011;BME280;5558;42.702;23.178;2023-08-01T07:18:00;93350.44;;;33.93;29.04
11011;BME280;5558;42.702;23.178;2023-08-01T07:20:26;93351.84;;;34.24;28.66
11011;BME280;5558;42.702;23.178;2023-08-01T07:22:54;93345.22;;;33.52;29.25
11011;BME280;5558;42.702;23.178;2023-08-01T07:25:21;93343.16;;;32.36;31.55
11011;BME280;5558;42.702;23.178;2023-08-01T07:27:48;93350.59;;;33.02;31.06
11011;BME280;5558;42.702;23.178;2023-08-01T07:30:15;93350.75;;;32.92;30.73
11011;BME280;5558;42.702;23.178;2023-08-01T07:32:42;93334.63;;;32.97;30.60
11011;BME280;5558;42.702;23.178;2023-08-01T07:35:09;93351.22;;;32.53;31.26
11011;BME280;5558;42.702;23.178;2023-08-01T07:37:36;93335.34;;;30.87;33.81
11011;BME280;5558;42.702;23.178;2023-08-01T07:40:05;93346.06;;;30.50;34.71
11011;BME280;5558;42.702;23.178;2023-08-01T07:42:32;93341.25;;;30.75;35.33
11011;BME280;5558;42.702;23.178;2023-08-01T07:44:58;93340.81;;;30.87;34.40
11011;BME280;5558;42.702;23.178;2023-08-01T07:47:25;93343.97;;;30.82;34.31
11011;BME280;5558;42.702;23.178;2023-08-01T07:49:52;93342.81;;;30.80;34.39
11011;BME280;5558;42.702;23.178;2023-08-01T07:52:19;93328.84;;;30.60;35.07
11011;BME280;5558;42.702;23.178;2023-08-01T07:54:45;93307.38;;;30.55;35.14
11011;BME280;5558;42.702;23.178;2023-08-01T07:57:13;93337.63;;;30.99;34.45
11011;BME280;5558;42.702;23.178;2023-08-01T07:59:41;93334.78;;;31.17;34.60
11011;BME280;5558;42.702;23.178;2023-08-01T08:02:07;93327.63;;;31.41;34.79
11011;BME280;5558;42.702;23.178;2023-08-01T08:04:34;93328.06;;;31.36;34.92
11011;BME280;5558;42.702;23.178;2023-08-01T08:07:00;93324.53;;;31.32;33.92
11011;BME280;5558;42.702;23.178;2023-08-01T08:09:27;93322.00;;;31.55;33.80
11011;BME280;5558;42.702;23.178;2023-08-01T08:11:54;93319.41;;;30.79;35.15
11011;BME280;5558;42.702;23.178;2023-08-01T08:14:24;93313.34;;;30.22;37.29
11011;BME280;5558;42.702;23.178;2023-08-01T08:16:51;93321.56;;;30.12;36.49
11011;BME280;5558;42.702;23.178;2023-08-01T08:19:17;93312.66;;;29.94;37.39
11011;BME280;5558;42.702;23.178;2023-08-01T08:21:44;93304.91;;;29.36;38.84
11011;BME280;5558;42.702;23.178;2023-08-01T08:24:11;93314.53;;;28.63;39.91
11011;BME280;5558;42.702;23.178;2023-08-01T08:26:37;93315.06;;;28.07;41.23
11011;BME280;5558;42.702;23.178;2023-08-01T08:29:05;93304.56;;;27.48;44.14
11011;BME280;5558;42.702;23.178;2023-08-01T08:31:33;93297.19;;;27.01;44.23
11011;BME280;5558;42.702;23.178;2023-08-01T08:33:59;93290.31;;;26.74;47.98
11011;BME280;5558;42.702;23.178;2023-08-01T08:36:26;93295.53;;;27.33;45.52
11011;BME280;5558;42.702;23.178;2023-08-01T08:38:53;93291.78;;;27.52;45.49
11011;BME280;5558;42.702;23.178;2023-08-01T08:41:21;93298.44;;;27.62;44.26
11011;BME280;5558;42.702;23.178;2023-08-01T08:43:49;93292.94;;;28.16;42.44
11011;BME280;5558;42.702;23.178;2023-08-01T08:46:16;93290.78;;;28.70;42.16
11011;BME280;5558;42.702;23.178;2023-08-01T08:48:45;93286.19;;;29.17;40.61
11011;BME280;5558;42.702;23.178;2023-08-01T08:51:12;93287.38;;;29.47;39.53
11011;BME280;5558;42.702;23.178;2023-08-01T08:53:40;93283.88;;;29.19;39.44
11011;BME280;5558;42.702;23.178;2023-08-01T08:56:08;93279.16;;;28.95;39.99
11011;BME280;5558;42.702;23.178;2023-08-01T08:58:36;93284.22;;;29.03;39.66
11011;BME280;5558;42.702;23.178;2023-08-01T09:01:06;93281.53;;;29.21;40.13
11011;BME280;5558;42.702;23.178;2023-08-01T09:03:33;93280.31;;;28.94;39.82
11011;BME280;5558;42.702;23.178;2023-08-01T09:06:04;93277.63;;;29.18;40.36
11011;BME280;5558;42.702;23.178;2023-08-01T09:08:36;93280.75;;;29.24;40.43
11011;BME280;5558;42.702;23.178;2023-08-01T09:11:04;93282.84;;;28.27;41.11
11011;BME280;5558;42.702;23.178;2023-08-01T09:13:31;93272.78;;;28.34;41.21
11011;BME280;5558;42.702;23.178;2023-08-01T09:16:01;93271.97;;;28.27;39.17
11011;BME280;5558;42.702;23.178;2023-08-01T09:18:28;93257.72;;;28.61;38.58
11011;BME280;5558;42.702;23.178;2023-08-01T09:20:55;93262.34;;;28.50;37.47
11011;BME280;5558;42.702;23.178;2023-08-01T09:23:28;93267.09;;;28.92;34.87
11011;BME280;5558;42.702;23.178;2023-08-01T09:25:56;93265.94;;;29.14;34.34
11011;BME280;5558;42.702;23.178;2023-08-01T09:28:23;93263.22;;;29.32;34.42
11011;BME280;5558;42.702;23.178;2023-08-01T09:30:51;93257.34;;;29.68;35.64
11011;BME280;5558;42.702;23.178;2023-08-01T09:33:19;93261.22;;;29.88;35.75
11011;BME280;5558;42.702;23.178;2023-08-01T09:35:46;93254.22;;;29.52;35.79
11011;BME280;5558;42.702;23.178;2023-08-01T09:38:14;93252.25;;;29.60;35.81
11011;BME280;5558;42.702;23.178;2023-08-01T09:40:44;93262.03;;;29.75;34.58
11011;BME280;5558;42.702;23.178;2023-08-01T09:43:11;93242.91;;;29.75;35.24
11011;BME280;5558;42.702;23.178;2023-08-01T09:45:49;93247.06;;;30.11;35.06
11011;BME280;5558;42.702;23.178;2023-08-01T09:48:22;93238.59;;;29.63;34.06
11011;BME280;5558;42.702;23.178;2023-08-01T09:50:49;93249.91;;;29.79;35.16
11011;BME280;5558;42.702;23.178;2023-08-01T09:53:15;93247.97;;;29.80;33.38
11011;BME280;5558;42.702;23.178;2023-08-01T09:55:44;93230.44;;;29.70;34.83
11011;BME280;5558;42.702;23.178;2023-08-01T09:58:13;93242.06;;;29.96;33.41
11011;BME280;5558;42.702;23.178;2023-08-01T10:00:40;93234.19;;;30.12;32.67
11011;BME280;5558;42.702;23.178;2023-08-01T10:03:09;93232.59;;;30.18;34.22
11011;BME280;5558;42.702;23.178;2023-08-01T10:05:36;93229.03;;;30.38;32.98
11011;BME280;5558;42.702;23.178;2023-08-01T10:08:05;93231.66;;;30.59;32.95
11011;BME280;5558;42.702;23.178;2023-08-01T10:10:32;93227.03;;;30.49;29.66
11011;BME280;5558;42.702;23.178;2023-08-01T10:13:01;93219.25;;;30.44;31.21
11011;BME280;5558;42.702;23.178;2023-08-01T10:15:28;93215.72;;;30.47;31.90
11011;BME280;5558;42.702;23.178;2023-08-01T10:17:56;93218.06;;;30.42;32.31
11011;BME280;5558;42.702;23.178;2023-08-01T10:20:23;93216.97;;;30.32;31.75
11011;BME280;5558;42.702;23.178;2023-08-01T10:22:51;93215.75;;;30.40;33.60
11011;BME280;5558;42.702;23.178;2023-08-01T10:25:19;93215.00;;;30.33;33.01
11011;BME280;5558;42.702;23.178;2023-08-01T10:27:57;93203.16;;;30.53;32.25
11011;BME280;5558;42.702;23.178;2023-08-01T10:30:27;93206.25;;;30.62;32.26
11011;BME280;5558;42.702;23.178;2023-08-01T10:32:55;93196.44;;;30.65;33.34
11011;BME280;5558;42.702;23.178;2023-08-01T10:35:32;93198.03;;;30.66;31.80
11011;BME280;5558;42.702;23.178;2023-08-01T10:38:04;93206.97;;;30.66;31.73
11011;BME280;5558;42.702;23.178;2023-08-01T10:40:38;93196.41;;;30.72;31.17
11011;BME280;5558;42.702;23.178;2023-08-01T10:43:05;93187.03;;;30.76;32.52
11011;BME280;5558;42.702;23.178;2023-08-01T10:45:33;93185.94;;;30.60;31.60
11011;BME280;5558;42.702;23.178;2023-08-01T10:48:07;93182.06;;;30.57;32.17
11011;BME280;5558;42.702;23.178;2023-08-01T10:50:34;93183.34;;;30.42;32.65
11011;BME280;5558;42.702;23.178;2023-08-01T10:53:02;93179.81;;;30.45;31.37
11011;BME280;5558;42.702;23.178;2023-08-01T10:55:41;93177.47;;;30.44;30.81
11011;BME280;5558;42.702;23.178;2023-08-01T10:58:09;93141.78;;;30.07;31.45
11011;BME280;5558;42.702;23.178;2023-08-01T11:00:37;93164.66;;;30.37;31.24
11011;BME280;5558;42.702;23.178;2023-08-01T11:03:04;93160.34;;;30.36;30.24
11011;BME280;5558;42.702;23.178;2023-08-01T11:05:31;93165.75;;;30.47;30.54
11011;BME280;5558;42.702;23.178;2023-08-01T11:07:59;93153.28;;;29.59;30.56
11011;BME280;5558;42.702;23.178;2023-08-01T11:10:26;93155.88;;;29.98;29.44
11011;BME280;5558;42.702;23.178;2023-08-01T11:12:54;93151.06;;;30.23;29.59
11011;BME280;5558;42.702;23.178;2023-08-01T11:15:21;93158.06;;;30.24;29.66
11011;BME280;5558;42.702;23.178;2023-08-01T11:17:50;93145.13;;;30.39;29.61
11011;BME280;5558;42.702;23.178;2023-08-01T11:20:18;93144.94;;;30.63;28.49
11011;BME280;5558;42.702;23.178;2023-08-01T11:22:51;93139.38;;;30.77;28.75
11011;BME280;5558;42.702;23.178;2023-08-01T11:25:18;93136.63;;;30.81;25.26
11011;BME280;5558;42.702;23.178;2023-08-01T11:27:45;93142.78;;;30.92;27.15
11011;BME280;5558;42.702;23.178;2023-08-01T11:30:11;93127.19;;;30.89;27.06
11011;BME280;5558;42.702;23.178;2023-08-01T11:32:38;93131.09;;;30.88;27.17
11011;BME280;5558;42.702;23.178;2023-08-01T11:35:07;93134.53;;;30.95;25.60
11011;BME280;5558;42.702;23.178;2023-08-01T11:37:35;93134.06;;;31.04;24.50
11011;BME280;5558;42.702;23.178;2023-08-01T11:40:02;93136.44;;;31.02;24.42
11011;BME280;5558;42.702;23.178;2023-08-01T11:42:32;93145.06;;;30.49;25.54
11011;BME280;5558;42.702;23.178;2023-08-01T11:45:09;93125.50;;;30.54;26.64
11011;BME280;5558;42.702;23.178;2023-08-01T11:47:36;93121.25;;;30.46;26.79
11011;BME280;5558;42.702;23.178;2023-08-01T11:50:06;93124.34;;;30.52;27.04
11011;BME280;5558;42.702;23.178;2023-08-01T11:52:34;93120.75;;;30.62;25.38
11011;BME280;5558;42.702;23.178;2023-08-01T11:55:01;93128.84;;;30.79;25.50
11011;BME280;5558;42.702;23.178;2023-08-01T11:57:27;93116.66;;;30.87;25.85
11011;BME280;5558;42.702;23.178;2023-08-01T11:59:55;93123.59;;;30.95;26.64
11011;BME280;5558;42.702;23.178;2023-08-01T12:02:23;93118.03;;;31.06;26.42
11011;BME280;5558;42.702;23.178;2023-08-01T12:04:49;93109.81;;;31.10;25.62
11011;BME280;5558;42.702;23.178;2023-08-01T12:07:18;93110.56;;;31.14;25.77
11011;BME280;5558;42.702;23.178;2023-08-01T12:09:54;93107.38;;;31.19;26.61
11011;BME280;5558;42.702;23.178;2023-08-01T12:12:21;93094.75;;;31.28;26.42
11011;BME280;5558;42.702;23.178;2023-08-01T12:14:47;93091.59;;;31.33;26.67
11011;BME280;5558;42.702;23.178;2023-08-01T12:17:14;93094.72;;;31.35;26.30
11011;BME280;5558;42.702;23.178;2023-08-01T12:19:41;93092.31;;;31.41;25.37
11011;BME280;5558;42.702;23.178;2023-08-01T12:22:07;93085.72;;;31.35;25.85
11011;BME280;5558;42.702;23.178;2023-08-01T12:24:35;93092.03;;;31.28;27.15
11011;BME280;5558;42.702;23.178;2023-08-01T12:27:04;93090.28;;;31.08;26.41
11011;BME280;5558;42.702;23.178;2023-08-01T12:29:30;93086.72;;;31.11;26.74
11011;BME280;5558;42.702;23.178;2023-08-01T12:31:57;93085.84;;;31.21;26.50
11011;BME280;5558;42.702;23.178;2023-08-01T12:34:24;93088.94;;;31.23;27.05
11011;BME280;5558;42.702;23.178;2023-08-01T12:36:50;93075.31;;;31.19;27.71
11011;BME280;5558;42.702;23.178;2023-08-01T12:39:17;93063.72;;;31.08;25.94
11011;BME280;5558;42.702;23.178;2023-08-01T12:41:45;93048.47;;;30.66;27.10
11011;BME280;5558;42.702;23.178;2023-08-01T12:44:12;93073.66;;;30.91;27.92
11011;BME280;5558;42.702;23.178;2023-08-01T12:46:41;93073.94;;;31.00;27.22
11011;BME280;5558;42.702;23.178;2023-08-01T12:49:08;93062.84;;;31.18;28.44
11011;BME280;5558;42.702;23.178;2023-08-01T12:51:34;93072.47;;;31.30;26.30
11011;BME280;5558;42.702;23.178;2023-08-01T12:54:01;93065.25;;;31.46;26.34
11011;BME280;5558;42.702;23.178;2023-08-01T12:56:28;93057.50;;;31.41;28.15
11011;BME280;5558;42.702;23.178;2023-08-01T12:58:56;93055.19;;;31.40;27.77